Time;durP1;ratioP1;P1;durP2;ratioP2;P2;SDS_P1;SDS_P2;PMS_P1;PMS_P2;Temp;Humidity;BMP_temperature;BMP_pressure;BME280_temperature;BME280_humidity;BME280_pressure;Samples;Min_cycle;Max_cycle;Signal;HPM_P1;HPM_P2
2021/01/15 00:00:05;;;;;;;13.13;7.90;;;-1.30;99.90;;;;;;5010325;28;20447;-63
2021/01/15 00:02:31;;;;;;;14.13;8.60;;;-1.30;99.90;;;;;;5011750;28;20590;-63
2021/01/15 00:04:56;;;;;;;15.73;8.40;;;-1.30;99.90;;;;;;5008728;28;20942;-64
2021/01/15 00:07:22;;;;;;;13.00;8.10;;;-1.30;99.90;;;;;;5009804;28;20205;-64
2021/01/15 00:09:47;;;;;;;13.23;8.43;;;-1.30;99.90;;;;;;5012315;28;20636;-64
2021/01/15 00:12:13;;;;;;;17.20;9.03;;;-1.30;99.90;;;;;;5010330;28;20213;-64
2021/01/15 00:14:39;;;;;;;11.50;7.57;;;-1.30;99.90;;;;;;5009733;28;20264;-64
2021/01/15 00:17:05;;;;;;;18.23;8.77;;;-1.30;99.90;;;;;;5010981;28;20473;-63
2021/01/15 00:19:31;;;;;;;16.07;9.50;;;-1.30;99.90;;;;;;4992076;28;20964;-64
2021/01/15 00:21:56;;;;;;;13.37;8.67;;;-1.30;99.90;;;;;;5025121;28;20224;-64
2021/01/15 00:24:22;;;;;;;12.33;8.00;;;-1.30;99.90;;;;;;5007886;28;20491;-64
2021/01/15 00:26:48;;;;;;;14.73;8.93;;;-1.30;99.90;;;;;;5011982;28;20680;-64
2021/01/15 00:29:17;;;;;;;17.43;9.50;;;-1.30;99.90;;;;;;5010750;28;20503;-65
2021/01/15 00:31:44;;;;;;;15.70;8.93;;;-1.30;99.90;;;;;;5009372;28;20202;-64
2021/01/15 00:34:11;;;;;;;13.93;8.07;;;-1.30;99.90;;;;;;5008463;28;20499;-64
2021/01/15 00:36:40;;;;;;;13.03;7.70;;;-1.30;99.90;;;;;;5012858;28;20550;-64
2021/01/15 00:39:06;;;;;;;13.83;9.10;;;-1.30;99.90;;;;;;5007458;28;20468;-64
2021/01/15 00:41:36;;;;;;;15.53;9.23;;;-1.30;99.90;;;;;;5010388;28;20483;-65
2021/01/15 00:44:03;;;;;;;17.73;8.67;;;-1.30;99.90;;;;;;5011905;28;20449;-64
2021/01/15 00:46:32;;;;;;;11.87;7.77;;;-1.30;99.90;;;;;;5009111;28;20448;-64
2021/01/15 00:49:10;;;;;;;13.70;8.17;;;-1.30;99.90;;;;;;5009669;28;20470;-64
2021/01/15 00:51:36;;;;;;;13.33;8.60;;;-1.30;99.90;;;;;;5010295;28;20461;-64
2021/01/15 00:54:04;;;;;;;14.40;8.53;;;-1.30;99.90;;;;;;5010177;28;20495;-65
2021/01/15 00:56:29;;;;;;;14.20;8.50;;;-1.30;99.90;;;;;;5007188;28;20512;-65
2021/01/15 00:58:55;;;;;;;11.00;7.73;;;-1.20;99.90;;;;;;5005168;28;20560;-64
2021/01/15 01:01:23;;;;;;;14.10;7.60;;;-1.20;99.90;;;;;;5009694;28;20684;-64
2021/01/15 01:03:50;;;;;;;13.43;7.87;;;-1.30;99.90;;;;;;5006077;28;20667;-64
2021/01/15 01:06:18;;;;;;;15.47;8.37;;;-1.30;99.90;;;;;;5011631;28;20436;-64
2021/01/15 01:08:45;;;;;;;13.23;8.30;;;-1.30;99.90;;;;;;5010780;28;20471;-64
2021/01/15 01:11:18;;;;;;;17.17;8.13;;;-1.30;99.90;;;;;;5009257;28;20457;-64
2021/01/15 01:13:45;;;;;;;13.93;8.07;;;-1.20;99.90;;;;;;5011039;28;20421;-64
2021/01/15 01:16:16;;;;;;;13.00;7.50;;;-1.20;99.90;;;;;;5006415;28;20446;-63
2021/01/15 01:18:42;;;;;;;12.17;7.40;;;-1.20;99.90;;;;;;5009287;28;20440;-64
2021/01/15 01:21:09;;;;;;;14.83;7.63;;;-1.30;99.90;;;;;;5011881;28;20473;-64
2021/01/15 01:23:35;;;;;;;11.60;7.90;;;-1.30;99.90;;;;;;5008344;28;20536;-64
2021/01/15 01:26:01;;;;;;;13.73;7.40;;;-1.30;99.90;;;;;;5009542;28;20460;-63
2021/01/15 01:28:27;;;;;;;14.47;8.10;;;-1.30;99.90;;;;;;5010420;28;20468;-63
2021/01/15 01:30:52;;;;;;;12.60;8.10;;;-1.30;99.90;;;;;;5010856;28;20472;-64
2021/01/15 01:33:18;;;;;;;12.57;8.23;;;-1.30;99.90;;;;;;5002337;28;20244;-64
2021/01/15 01:35:44;;;;;;;13.67;8.30;;;-1.40;99.90;;;;;;5010555;28;20555;-64
2021/01/15 01:38:10;;;;;;;13.73;7.10;;;-1.40;99.90;;;;;;5005692;28;20197;-64
2021/01/15 01:40:36;;;;;;;11.67;7.80;;;-1.40;99.90;;;;;;5008781;28;20203;-63
2021/01/15 01:43:02;;;;;;;14.57;8.20;;;-1.40;99.90;;;;;;4999285;28;20985;-63
2021/01/15 01:45:28;;;;;;;12.93;7.93;;;-1.40;99.90;;;;;;5009120;28;20221;-63
2021/01/15 01:47:56;;;;;;;13.53;8.27;;;-1.40;99.90;;;;;;5010331;28;20480;-64
2021/01/15 01:50:23;;;;;;;13.87;8.70;;;-1.40;99.90;;;;;;4997889;28;20554;-64
2021/01/15 01:52:49;;;;;;;16.57;8.03;;;-1.40;99.90;;;;;;5010406;28;20463;-64
2021/01/15 01:55:15;;;;;;;11.70;7.37;;;-1.40;99.90;;;;;;5007068;28;20467;-64
2021/01/15 01:57:41;;;;;;;15.30;8.17;;;-1.40;99.90;;;;;;5002975;28;20177;-64
2021/01/15 02:00:08;;;;;;;13.67;8.30;;;-1.40;99.90;;;;;;5010625;28;20822;-64
2021/01/15 02:02:33;;;;;;;11.57;7.70;;;-1.40;99.90;;;;;;5007605;28;20455;-63
2021/01/15 02:04:59;;;;;;;9.90;7.20;;;-1.40;99.90;;;;;;5008964;28;20820;-63
2021/01/15 02:07:24;;;;;;;12.00;7.77;;;-1.50;99.90;;;;;;5007069;28;20205;-63
2021/01/15 02:09:56;;;;;;;13.57;8.10;;;-1.50;99.90;;;;;;5008867;28;20216;-63
2021/01/15 02:12:34;;;;;;;14.00;8.73;;;-1.50;99.90;;;;;;5009223;28;20199;-63
2021/01/15 02:15:18;;;;;;;16.10;7.97;;;-1.50;99.90;;;;;;5008285;28;20817;-63
2021/01/15 02:18:15;;;;;;;14.13;8.23;;;-1.50;99.90;;;;;;5010326;28;20802;-64
2021/01/15 02:20:49;;;;;;;13.10;8.40;;;-1.50;99.90;;;;;;5004911;28;20961;-63
2021/01/15 02:23:34;;;;;;;14.00;8.50;;;-1.50;99.90;;;;;;5009713;28;20432;-64
2021/01/15 02:26:12;;;;;;;13.50;8.40;;;-1.50;99.90;;;;;;5006573;28;20819;-63
2021/01/15 02:29:01;;;;;;;14.90;7.60;;;-1.50;99.90;;;;;;5008334;28;20456;-63
2021/01/15 02:31:45;;;;;;;17.17;8.93;;;-1.60;99.90;;;;;;4996189;28;20454;-63
2021/01/15 02:34:22;;;;;;;16.70;9.07;;;-1.50;99.90;;;;;;5009437;28;20563;-64
2021/01/15 02:37:26;;;;;;;14.63;8.40;;;-1.60;99.90;;;;;;5011314;28;20957;-63
2021/01/15 02:40:18;;;;;;;14.87;9.30;;;-1.50;99.90;;;;;;5001364;28;20839;-64
2021/01/15 02:42:46;;;;;;;16.17;8.93;;;-1.50;99.90;;;;;;5009044;28;20467;-64
2021/01/15 02:45:13;;;;;;;15.10;8.80;;;-1.50;99.90;;;;;;5006008;28;20468;-63
2021/01/15 02:47:49;;;;;;;14.53;8.67;;;-1.50;99.90;;;;;;5008934;28;20467;-64
2021/01/15 02:50:25;;;;;;;16.33;9.13;;;-1.60;99.90;;;;;;5002097;28;20515;-64
2021/01/15 02:52:53;;;;;;;15.43;9.47;;;-1.60;99.90;;;;;;5009739;28;20441;-64
2021/01/15 02:55:19;;;;;;;15.70;8.93;;;-1.60;99.90;;;;;;5002564;28;20432;-64
2021/01/15 02:57:47;;;;;;;20.07;8.33;;;-1.60;99.90;;;;;;4999123;28;20801;-63
2021/01/15 03:00:15;;;;;;;15.53;9.07;;;-1.60;99.90;;;;;;5002372;28;20437;-63
2021/01/15 03:02:47;;;;;;;17.90;8.83;;;-1.60;99.90;;;;;;5007671;28;20979;-64
2021/01/15 03:05:19;;;;;;;14.93;8.90;;;-1.60;99.90;;;;;;5001766;28;20437;-63
2021/01/15 03:07:46;;;;;;;22.27;9.73;;;-1.60;99.90;;;;;;4999766;28;20510;-64
2021/01/15 03:10:13;;;;;;;15.07;8.03;;;-1.60;99.90;;;;;;5005848;28;20532;-64
2021/01/15 03:12:43;;;;;;;16.70;9.03;;;-1.60;99.90;;;;;;5007114;28;20503;-64
2021/01/15 03:15:10;;;;;;;19.27;9.57;;;-1.60;99.90;;;;;;5006528;28;20531;-64
2021/01/15 03:17:41;;;;;;;15.27;8.83;;;-1.60;99.90;;;;;;5009427;28;20460;-64
2021/01/15 03:20:09;;;;;;;14.77;9.00;;;-1.60;99.90;;;;;;4995283;28;20450;-63
2021/01/15 03:22:37;;;;;;;14.63;8.77;;;-1.60;99.90;;;;;;5009312;28;20967;-64
2021/01/15 03:25:04;;;;;;;15.37;9.30;;;-1.60;99.90;;;;;;5015396;28;20437;-63
2021/01/15 03:27:50;;;;;;;15.90;9.83;;;-1.60;99.90;;;;;;5024858;28;20478;-63
2021/01/15 03:30:26;;;;;;;16.50;8.87;;;-1.60;99.90;;;;;;5025367;28;20962;-63
2021/01/15 03:32:55;;;;;;;14.00;8.07;;;-1.60;99.90;;;;;;5015489;28;20509;-65
2021/01/15 03:35:23;;;;;;;16.20;8.60;;;-1.60;99.90;;;;;;5010895;28;20475;-64
2021/01/15 03:37:58;;;;;;;15.10;9.07;;;-1.70;99.90;;;;;;5007209;28;20437;-64
2021/01/15 03:40:26;;;;;;;16.37;9.13;;;-1.70;99.90;;;;;;5005694;28;20455;-63
2021/01/15 03:42:54;;;;;;;19.60;9.27;;;-1.70;99.90;;;;;;5007650;28;20463;-64
2021/01/15 03:45:19;;;;;;;15.93;9.43;;;-1.60;99.90;;;;;;5009889;28;20424;-64
2021/01/15 03:47:45;;;;;;;18.23;8.90;;;-1.60;99.90;;;;;;5007608;28;21038;-64
2021/01/15 03:50:11;;;;;;;16.07;8.43;;;-1.60;99.90;;;;;;5009760;28;20640;-64
2021/01/15 03:52:37;;;;;;;14.60;7.67;;;-1.60;99.90;;;;;;5006238;28;20212;-64
2021/01/15 03:55:04;;;;;;;16.63;8.43;;;-1.60;99.90;;;;;;5005464;28;20811;-63
2021/01/15 03:57:30;;;;;;;16.93;8.63;;;-1.60;99.90;;;;;;5007085;28;20185;-63
2021/01/15 03:59:55;;;;;;;17.53;8.00;;;-1.60;99.90;;;;;;5010577;28;20438;-64
2021/01/15 04:02:21;;;;;;;17.03;9.00;;;-1.60;99.90;;;;;;5011696;28;20216;-64
2021/01/15 04:04:49;;;;;;;15.70;8.00;;;-1.70;99.90;;;;;;5006686;28;20190;-63
2021/01/15 04:07:18;;;;;;;15.27;8.80;;;-1.70;99.90;;;;;;5001883;28;20183;-64
2021/01/15 04:09:44;;;;;;;14.23;8.17;;;-1.70;99.90;;;;;;5010525;28;20644;-64
2021/01/15 04:12:11;;;;;;;12.60;7.50;;;-1.70;99.90;;;;;;5011676;28;20577;-63
2021/01/15 04:14:39;;;;;;;12.40;8.10;;;-1.70;99.90;;;;;;5010331;28;20187;-64
2021/01/15 04:17:04;;;;;;;11.17;7.20;;;-1.70;99.90;;;;;;5009988;28;20438;-63
2021/01/15 04:19:30;;;;;;;11.90;7.27;;;-1.70;99.90;;;;;;5009247;28;21024;-63
2021/01/15 04:21:56;;;;;;;11.33;6.93;;;-1.70;99.90;;;;;;5011674;28;20642;-63
2021/01/15 04:24:22;;;;;;;10.83;6.80;;;-1.70;99.90;;;;;;5009695;28;20190;-64
2021/01/15 04:26:55;;;;;;;10.53;6.37;;;-1.70;99.90;;;;;;5011093;28;20463;-64
2021/01/15 04:29:21;;;;;;;11.37;7.33;;;-1.70;99.90;;;;;;5005713;28;20494;-64
2021/01/15 04:31:47;;;;;;;11.40;7.20;;;-1.70;99.90;;;;;;5009982;28;20468;-63
2021/01/15 04:34:14;;;;;;;15.80;6.97;;;-1.70;99.90;;;;;;5006503;28;20437;-63
2021/01/15 04:36:39;;;;;;;10.83;6.60;;;-1.70;99.90;;;;;;5010443;28;20424;-63
2021/01/15 04:39:06;;;;;;;12.83;7.33;;;-1.80;99.90;;;;;;5004140;28;21186;-65
2021/01/15 04:41:32;;;;;;;10.83;6.87;;;-1.80;99.90;;;;;;5021095;28;20240;-64
2021/01/15 04:43:58;;;;;;;11.77;7.20;;;-1.80;99.90;;;;;;5011137;28;20444;-64
2021/01/15 04:46:25;;;;;;;8.97;6.00;;;-1.80;99.90;;;;;;5009129;28;20459;-63
2021/01/15 04:48:52;;;;;;;12.67;6.90;;;-1.70;99.90;;;;;;5005016;28;20467;-63
2021/01/15 04:51:21;;;;;;;10.20;6.63;;;-1.80;99.90;;;;;;5008754;28;20448;-63
2021/01/15 04:54:13;;;;;;;10.13;7.50;;;-1.80;99.90;;;;;;5025381;28;20493;-64
2021/01/15 04:56:51;;;;;;;11.57;7.20;;;-1.80;99.90;;;;;;5000228;28;20433;-63
2021/01/15 04:59:18;;;;;;;14.70;7.33;;;-1.80;99.90;;;;;;5007289;28;20535;-64
2021/01/15 05:01:48;;;;;;;11.27;6.97;;;-1.80;99.90;;;;;;5007001;28;20950;-64
2021/01/15 05:04:19;;;;;;;13.53;7.33;;;-1.80;99.90;;;;;;5007686;28;20429;-64
2021/01/15 05:06:45;;;;;;;16.90;7.30;;;-1.80;99.90;;;;;;5007461;28;20453;-63
2021/01/15 05:09:13;;;;;;;13.13;7.33;;;-1.80;99.90;;;;;;5009331;28;20492;-64
2021/01/15 05:11:41;;;;;;;14.43;6.77;;;-1.80;99.90;;;;;;5010201;28;20452;-63
2021/01/15 05:14:15;;;;;;;14.03;7.37;;;-1.80;99.90;;;;;;5012133;28;20506;-63
2021/01/15 05:16:49;;;;;;;13.23;7.83;;;-1.90;99.90;;;;;;5008407;28;20436;-64
2021/01/15 05:19:15;;;;;;;10.43;6.40;;;-1.90;99.90;;;;;;5008874;28;20448;-63
2021/01/15 05:21:42;;;;;;;12.90;7.60;;;-1.90;99.90;;;;;;5010718;28;20460;-63
2021/01/15 05:24:10;;;;;;;11.57;7.50;;;-1.90;99.90;;;;;;5007270;28;20443;-64
2021/01/15 05:26:36;;;;;;;12.93;7.57;;;-1.90;99.90;;;;;;5009511;28;20426;-63
2021/01/15 05:29:04;;;;;;;9.80;5.80;;;-1.80;99.90;;;;;;5002420;28;20474;-64
2021/01/15 05:31:53;;;;;;;13.80;7.30;;;-1.90;99.90;;;;;;5006508;28;20467;-64
2021/01/15 05:34:21;;;;;;;11.17;7.10;;;-1.90;99.90;;;;;;5006004;28;20459;-63
2021/01/15 05:36:47;;;;;;;13.20;7.50;;;-1.90;99.90;;;;;;5010654;28;20469;-64
2021/01/15 05:39:14;;;;;;;22.80;8.10;;;-1.90;99.90;;;;;;5006240;28;20433;-63
2021/01/15 05:41:41;;;;;;;12.37;6.60;;;-1.90;99.90;;;;;;5006779;28;20969;-64
2021/01/15 05:44:08;;;;;;;13.00;6.87;;;-1.90;99.90;;;;;;5010986;28;20891;-64
2021/01/15 05:46:34;;;;;;;14.27;7.43;;;-1.90;99.90;;;;;;5006477;28;20677;-64
2021/01/15 05:49:11;;;;;;;12.60;7.50;;;-1.90;99.90;;;;;;5005938;28;20958;-65
2021/01/15 05:51:39;;;;;;;10.40;6.60;;;-1.90;99.90;;;;;;5000154;28;20484;-64
2021/01/15 05:54:09;;;;;;;13.90;7.47;;;-1.90;99.90;;;;;;5001551;28;20522;-65
2021/01/15 05:56:53;;;;;;;13.00;7.17;;;-1.90;99.90;;;;;;5003174;28;20444;-65
2021/01/15 05:59:19;;;;;;;13.53;7.10;;;-1.90;99.90;;;;;;5003237;28;20522;-66
2021/01/15 06:01:55;;;;;;;9.33;5.90;;;-1.90;99.90;;;;;;5005631;28;20982;-65
2021/01/15 06:04:40;;;;;;;13.13;6.77;;;-1.90;99.90;;;;;;5004726;28;20193;-65
2021/01/15 06:07:08;;;;;;;9.50;5.63;;;-1.90;99.90;;;;;;5006958;28;20440;-64
2021/01/15 06:09:35;;;;;;;9.97;6.10;;;-1.90;99.90;;;;;;5007960;28;20440;-65
2021/01/15 06:12:10;;;;;;;13.13;7.00;;;-1.90;99.90;;;;;;5008130;28;20475;-65
2021/01/15 06:17:21;;;;;;;15.20;6.40;;;-1.90;99.90;;;;;;5009890;28;20444;-65
2021/01/15 06:19:58;;;;;;;9.37;5.97;;;-1.90;99.90;;;;;;5008089;28;20445;-64
2021/01/15 06:22:32;;;;;;;10.60;6.50;;;-1.90;99.90;;;;;;5005062;28;20455;-65
2021/01/15 06:25:28;;;;;;;8.30;5.43;;;-1.90;99.90;;;;;;5003153;28;20543;-65
2021/01/15 06:27:56;;;;;;;10.83;5.93;;;-1.90;99.90;;;;;;4994113;28;21017;-64
2021/01/15 06:30:42;;;;;;;8.63;5.93;;;-1.90;99.90;;;;;;4994769;28;20436;-65
2021/01/15 06:33:13;;;;;;;9.77;5.67;;;-1.90;99.90;;;;;;4996227;28;20468;-65
2021/01/15 06:35:44;;;;;;;8.10;4.83;;;-1.90;99.90;;;;;;5004037;28;21121;-65
2021/01/15 06:38:11;;;;;;;11.47;5.67;;;-1.90;99.90;;;;;;4998027;28;21324;-64
2021/01/15 06:40:39;;;;;;;9.40;5.40;;;-1.90;99.90;;;;;;4977718;28;20495;-63
2021/01/15 06:43:10;;;;;;;8.07;5.13;;;-1.90;99.90;;;;;;5014002;28;20497;-64
2021/01/15 06:45:39;;;;;;;9.80;5.33;;;-1.90;99.90;;;;;;4996031;28;21013;-65
2021/01/15 06:48:13;;;;;;;7.83;5.10;;;-1.90;99.90;;;;;;4998201;28;20475;-65
2021/01/15 06:50:41;;;;;;;12.50;5.63;;;-1.90;99.90;;;;;;4996906;28;20437;-63
2021/01/15 06:53:26;;;;;;;11.30;5.60;;;-1.90;99.90;;;;;;4996323;28;20437;-64
2021/01/15 06:55:53;;;;;;;7.33;4.70;;;-1.90;99.90;;;;;;5000123;28;20465;-65
2021/01/15 06:58:19;;;;;;;19.30;11.87;;;-1.90;99.90;;;;;;4992436;28;20453;-65
2021/01/15 07:01:20;;;;;;;23.80;11.33;;;-1.90;99.90;;;;;;4998993;28;20436;-64
2021/01/15 07:04:01;;;;;;;8.63;5.40;;;-1.90;99.90;;;;;;4998178;28;20448;-64
2021/01/15 07:06:28;;;;;;;8.33;5.30;;;-1.90;99.90;;;;;;5001720;28;20893;-64
2021/01/15 07:08:55;;;;;;;7.87;5.10;;;-1.90;99.90;;;;;;4995688;28;20484;-64
2021/01/15 07:11:24;;;;;;;8.20;5.10;;;-1.90;99.90;;;;;;4999344;28;20465;-64
2021/01/15 07:13:53;;;;;;;6.70;4.73;;;-1.90;99.90;;;;;;4995106;28;20429;-65
2021/01/15 07:16:39;;;;;;;8.40;4.57;;;-1.90;99.90;;;;;;4991539;28;20480;-64
2021/01/15 07:19:05;;;;;;;13.03;6.67;;;-1.90;99.80;;;;;;4996406;28;20497;-65
2021/01/15 07:21:35;;;;;;;6.60;4.67;;;-1.90;99.70;;;;;;5000820;28;20453;-64
2021/01/15 07:24:09;;;;;;;8.13;4.77;;;-1.90;99.40;;;;;;5000284;28;20248;-64
2021/01/15 07:26:41;;;;;;;10.97;5.83;;;-2.00;99.40;;;;;;5001412;28;20480;-64
2021/01/15 07:29:13;;;;;;;6.10;4.30;;;-2.00;99.60;;;;;;5001130;28;20996;-63
2021/01/15 07:31:43;;;;;;;6.90;4.10;;;-2.00;99.50;;;;;;4996740;28;20453;-64
2021/01/15 07:34:18;;;;;;;7.33;3.97;;;-2.00;99.70;;;;;;4999554;28;20471;-63
2021/01/15 07:36:46;;;;;;;5.40;4.00;;;-1.90;99.80;;;;;;5000294;28;20427;-65
2021/01/15 07:39:14;;;;;;;6.40;4.57;;;-1.90;99.90;;;;;;4998980;28;20440;-65
2021/01/15 07:41:49;;;;;;;5.20;4.00;;;-1.90;99.80;;;;;;5000660;28;20502;-65
2021/01/15 07:44:27;;;;;;;6.03;4.30;;;-1.90;99.20;;;;;;5004228;28;20471;-63
2021/01/15 07:46:58;;;;;;;9.83;3.90;;;-1.90;99.40;;;;;;5016321;28;20499;-62
2021/01/15 07:49:24;;;;;;;5.63;3.80;;;-1.90;99.30;;;;;;5000605;28;20551;-63
2021/01/15 07:52:05;;;;;;;8.40;4.03;;;-1.90;99.30;;;;;;4997823;28;20457;-63
2021/01/15 07:55:00;;;;;;;5.10;3.70;;;-1.90;99.20;;;;;;5004851;28;20436;-64
2021/01/15 07:57:27;;;;;;;7.00;4.73;;;-1.90;98.80;;;;;;5007184;28;20579;-63
2021/01/15 07:59:52;;;;;;;7.90;4.77;;;-1.90;98.90;;;;;;5000819;28;20498;-63
2021/01/15 08:02:19;;;;;;;9.07;5.27;;;-1.90;98.80;;;;;;4997938;28;20471;-63
2021/01/15 08:04:45;;;;;;;8.00;4.20;;;-1.90;98.80;;;;;;4996199;28;20623;-63
2021/01/15 08:07:33;;;;;;;6.13;3.93;;;-1.90;99.00;;;;;;5000636;28;22728;-63
2021/01/15 08:10:02;;;;;;;6.87;4.10;;;-1.80;98.90;;;;;;4995203;28;20482;-63
2021/01/15 08:12:40;;;;;;;10.03;4.60;;;-1.80;98.90;;;;;;4996511;28;20456;-63
2021/01/15 08:15:32;;;;;;;5.03;3.90;;;-1.80;98.20;;;;;;4999916;28;20435;-62
2021/01/15 08:18:04;;;;;;;5.60;3.70;;;-1.80;98.40;;;;;;5002182;28;20462;-63
2021/01/15 08:20:30;;;;;;;6.63;4.10;;;-1.80;98.10;;;;;;4998643;28;20835;-63
2021/01/15 08:22:56;;;;;;;5.60;3.93;;;-1.70;98.10;;;;;;5004761;28;20881;-63
2021/01/15 08:25:27;;;;;;;5.80;4.70;;;-1.70;98.10;;;;;;4998755;28;20499;-65
2021/01/15 08:27:53;;;;;;;4.97;3.40;;;-1.70;98.00;;;;;;4998952;28;20951;-62
2021/01/15 08:30:19;;;;;;;6.53;4.33;;;-1.70;97.60;;;;;;5001429;28;20450;-65
2021/01/15 08:32:45;;;;;;;6.47;3.97;;;-1.70;97.70;;;;;;5007389;28;20467;-64
2021/01/15 08:35:23;;;;;;;6.27;4.13;;;-1.70;97.20;;;;;;4996262;28;20440;-64
2021/01/15 08:37:58;;;;;;;5.60;4.23;;;-1.70;97.40;;;;;;4996122;28;20439;-63
2021/01/15 08:40:29;;;;;;;6.27;3.80;;;-1.60;97.20;;;;;;5002851;28;20454;-64
2021/01/15 08:42:57;;;;;;;8.77;3.97;;;-1.60;96.90;;;;;;5011566;28;20948;-64
2021/01/15 08:45:27;;;;;;;4.53;3.27;;;-1.60;96.80;;;;;;5004602;28;20868;-62
2021/01/15 08:47:55;;;;;;;5.63;3.80;;;-1.60;96.50;;;;;;5014793;28;20518;-63
2021/01/15 08:50:22;;;;;;;7.60;4.43;;;-1.60;96.60;;;;;;5014180;28;20962;-65
2021/01/15 08:52:49;;;;;;;4.93;3.60;;;-1.60;96.90;;;;;;5029878;28;20449;-63
2021/01/15 08:55:17;;;;;;;6.97;3.70;;;-1.60;96.40;;;;;;5007373;28;20434;-63
2021/01/15 08:57:44;;;;;;;6.83;4.63;;;-1.60;96.00;;;;;;5008066;28;20434;-64
2021/01/15 09:00:15;;;;;;;6.17;4.00;;;-1.60;96.00;;;;;;5002760;28;20437;-67
2021/01/15 09:02:43;;;;;;;7.43;4.10;;;-1.50;96.10;;;;;;5010671;28;21071;-63
2021/01/15 09:05:16;;;;;;;7.90;4.30;;;-1.50;95.80;;;;;;5004003;28;20505;-63
2021/01/15 09:07:44;;;;;;;10.07;5.43;;;-1.50;95.50;;;;;;5000358;28;20452;-65
2021/01/15 09:10:13;;;;;;;66.70;20.97;;;-1.60;95.30;;;;;;5005583;28;20437;-63
2021/01/15 09:12:43;;;;;;;473.03;122.07;;;-1.60;95.60;;;;;;5016459;28;20465;-64
2021/01/15 09:15:38;;;;;;;641.83;175.87;;;-1.60;95.50;;;;;;5004272;28;20438;-63
2021/01/15 09:18:06;;;;;;;113.67;30.50;;;-1.60;95.30;;;;;;4983890;28;20446;-63
2021/01/15 09:20:32;;;;;;;24.23;8.17;;;-1.50;95.30;;;;;;4999179;28;20456;-62
2021/01/15 09:22:58;;;;;;;13.00;5.77;;;-1.50;95.10;;;;;;5001679;28;20448;-64
2021/01/15 09:25:26;;;;;;;8.73;4.13;;;-1.50;95.00;;;;;;5002851;28;20181;-63
2021/01/15 09:27:51;;;;;;;6.93;4.23;;;-1.50;95.10;;;;;;5001841;28;20260;-64
2021/01/15 09:30:18;;;;;;;9.00;5.67;;;-1.50;94.50;;;;;;4999575;28;20443;-64
2021/01/15 09:32:45;;;;;;;7.47;4.30;;;-1.40;94.90;;;;;;5004474;28;20218;-63
2021/01/15 09:35:13;;;;;;;7.57;4.37;;;-1.40;94.40;;;;;;5003220;28;20439;-63
2021/01/15 09:37:39;;;;;;;10.30;3.90;;;-1.40;94.40;;;;;;4997059;28;21126;-65
2021/01/15 09:40:06;;;;;;;7.53;4.30;;;-1.30;94.60;;;;;;5000179;28;20494;-64
2021/01/15 09:42:32;;;;;;;7.43;4.30;;;-1.30;94.60;;;;;;5005523;28;20465;-66
2021/01/15 09:44:59;;;;;;;7.10;3.93;;;-1.20;94.50;;;;;;5003176;28;20436;-65
2021/01/15 09:47:28;;;;;;;7.07;3.70;;;-1.10;94.60;;;;;;5003541;28;20450;-65
2021/01/15 09:49:54;;;;;;;4.90;4.00;;;-0.90;94.60;;;;;;4999815;28;20441;-65
2021/01/15 09:52:20;;;;;;;7.03;4.63;;;-0.80;93.90;;;;;;4996396;28;20894;-65
2021/01/15 09:54:45;;;;;;;6.53;3.70;;;-0.80;93.90;;;;;;5000379;28;20177;-66
2021/01/15 09:57:11;;;;;;;6.10;4.03;;;-0.70;94.00;;;;;;4995752;28;20204;-64
2021/01/15 09:59:37;;;;;;;8.60;4.07;;;-0.60;94.20;;;;;;5001090;28;20440;-64
2021/01/15 10:02:03;;;;;;;6.17;4.00;;;-0.50;93.30;;;;;;4996505;28;20699;-63
2021/01/15 10:04:28;;;;;;;8.20;3.90;;;-0.40;92.90;;;;;;4998054;28;20214;-62
2021/01/15 10:06:54;;;;;;;7.70;4.30;;;-0.40;92.90;;;;;;4996368;28;20243;-61
2021/01/15 10:09:20;;;;;;;6.23;4.43;;;-0.30;92.90;;;;;;4996771;28;20241;-66
2021/01/15 10:11:49;;;;;;;7.70;4.40;;;-0.20;93.00;;;;;;5000521;28;20258;-66
2021/01/15 10:14:16;;;;;;;8.80;5.10;;;0.00;93.30;;;;;;5001250;28;20695;-66
2021/01/15 10:16:47;;;;;;;5.80;3.90;;;0.20;92.50;;;;;;5001157;28;20430;-67
2021/01/15 10:19:13;;;;;;;5.07;3.90;;;0.30;92.30;;;;;;5000710;28;20438;-66
2021/01/15 10:21:40;;;;;;;9.53;4.27;;;0.40;92.40;;;;;;4999506;28;20631;-65
2021/01/15 10:24:10;;;;;;;5.20;4.07;;;0.40;91.40;;;;;;4999689;28;20428;-65
2021/01/15 10:26:37;;;;;;;5.30;4.13;;;0.50;91.40;;;;;;4995733;28;21233;-65
2021/01/15 10:29:13;;;;;;;7.00;4.53;;;0.60;91.70;;;;;;5001750;28;20467;-66
2021/01/15 10:31:42;;;;;;;4.80;3.90;;;0.60;91.50;;;;;;4997763;28;20473;-65
2021/01/15 10:34:08;;;;;;;5.23;3.93;;;0.60;91.30;;;;;;4998495;28;20436;-66
2021/01/15 10:36:35;;;;;;;5.50;3.77;;;0.60;91.40;;;;;;5000217;28;20444;-67
2021/01/15 10:39:06;;;;;;;5.97;4.13;;;0.50;90.60;;;;;;4999517;28;20194;-65
2021/01/15 10:41:34;;;;;;;4.67;3.50;;;0.50;90.40;;;;;;4996190;28;20998;-66
2021/01/15 10:44:00;;;;;;;10.30;4.40;;;0.50;90.60;;;;;;4997945;28;20437;-66
2021/01/15 10:46:35;;;;;;;5.20;3.87;;;0.50;90.80;;;;;;4995206;28;20455;-67
2021/01/15 10:49:02;;;;;;;5.80;4.13;;;0.50;91.20;;;;;;5001483;28;20464;-66
2021/01/15 10:51:28;;;;;;;6.00;4.30;;;0.50;91.00;;;;;;5000497;28;20542;-66
2021/01/15 10:53:53;;;;;;;6.67;4.20;;;0.60;90.90;;;;;;4997089;28;21052;-66
2021/01/15 10:56:19;;;;;;;6.40;4.10;;;0.60;90.90;;;;;;5004427;28;20190;-64
2021/01/15 10:58:45;;;;;;;6.50;4.33;;;0.70;90.70;;;;;;5002662;28;20280;-66
2021/01/15 11:01:10;;;;;;;7.30;4.60;;;0.70;90.60;;;;;;4982481;28;20245;-65
2021/01/15 11:03:36;;;;;;;6.30;4.20;;;0.80;89.90;;;;;;5000174;28;20225;-66
2021/01/15 11:06:02;;;;;;;7.60;4.87;;;0.80;90.00;;;;;;4998982;28;20839;-65
2021/01/15 11:08:28;;;;;;;11.30;5.40;;;0.80;89.90;;;;;;5004701;28;20207;-66
2021/01/15 11:10:53;;;;;;;12.23;5.30;;;0.90;88.90;;;;;;5000573;28;20625;-66
2021/01/15 11:13:19;;;;;;;6.33;4.17;;;0.90;88.60;;;;;;4999645;28;20185;-67
2021/01/15 11:15:45;;;;;;;7.77;4.87;;;1.00;86.90;;;;;;5004717;28;20186;-67
2021/01/15 11:18:10;;;;;;;9.50;5.00;;;1.10;86.30;;;;;;4983389;28;20202;-66
2021/01/15 11:20:36;;;;;;;8.37;5.07;;;1.10;88.40;;;;;;5000473;28;20234;-67
2021/01/15 11:23:02;;;;;;;8.07;5.40;;;1.20;87.60;;;;;;5006993;28;20263;-66
2021/01/15 11:25:28;;;;;;;6.30;3.73;;;1.30;86.00;;;;;;5002004;28;20862;-66
2021/01/15 11:27:54;;;;;;;8.93;5.20;;;1.40;84.80;;;;;;5002265;28;20220;-65
2021/01/15 11:30:20;;;;;;;7.90;4.40;;;1.50;84.60;;;;;;5000399;28;20214;-65
2021/01/15 11:32:45;;;;;;;6.87;4.80;;;1.60;81.90;;;;;;5002675;28;20198;-65
2021/01/15 11:35:11;;;;;;;6.90;4.10;;;1.80;79.90;;;;;;5006652;28;20436;-66
2021/01/15 11:37:37;;;;;;;11.50;5.67;;;1.90;81.00;;;;;;5016597;28;20279;-64
2021/01/15 11:40:05;;;;;;;8.73;4.97;;;2.00;79.70;;;;;;5001532;28;20201;-64
2021/01/15 11:42:31;;;;;;;10.73;4.67;;;2.00;78.10;;;;;;5003219;28;20531;-65
2021/01/15 11:44:57;;;;;;;7.97;5.40;;;2.10;76.70;;;;;;4997672;28;20466;-64
2021/01/15 11:47:22;;;;;;;11.23;4.30;;;2.10;73.60;;;;;;5003445;28;20193;-65
2021/01/15 11:49:48;;;;;;;6.83;4.67;;;2.10;73.30;;;;;;4998345;28;20679;-64
2021/01/15 11:52:14;;;;;;;9.33;5.57;;;2.20;75.30;;;;;;5000089;28;20233;-63
2021/01/15 11:54:40;;;;;;;10.43;5.40;;;2.20;74.10;;;;;;4999277;28;20457;-64
2021/01/15 11:57:06;;;;;;;9.87;5.60;;;2.20;73.60;;;;;;4999472;28;20200;-63
2021/01/15 11:59:31;;;;;;;10.80;5.67;;;2.20;70.40;;;;;;4999401;28;20439;-64
2021/01/15 12:01:58;;;;;;;6.93;4.60;;;2.20;72.80;;;;;;4998209;28;20285;-64
2021/01/15 12:04:24;;;;;;;7.70;4.60;;;2.20;74.60;;;;;;4999608;28;20178;-63
2021/01/15 12:06:54;;;;;;;7.57;5.27;;;2.30;71.30;;;;;;5002822;28;20437;-64
2021/01/15 12:09:21;;;;;;;11.30;5.20;;;2.30;71.90;;;;;;5003123;28;21074;-65
2021/01/15 12:11:46;;;;;;;13.73;5.17;;;2.50;72.40;;;;;;5000657;28;20532;-66
2021/01/15 12:14:12;;;;;;;7.70;4.50;;;2.40;70.50;;;;;;4999717;28;20850;-66
2021/01/15 12:16:39;;;;;;;9.63;5.53;;;2.10;71.10;;;;;;5001827;28;20180;-64
2021/01/15 12:19:07;;;;;;;8.70;5.43;;;1.80;73.90;;;;;;5005264;28;20431;-65
2021/01/15 12:21:36;;;;;;;9.93;5.27;;;1.40;77.70;;;;;;4998252;28;20462;-64
2021/01/15 12:24:05;;;;;;;9.60;4.90;;;1.10;79.80;;;;;;5005187;28;20430;-65
2021/01/15 12:26:39;;;;;;;9.17;4.53;;;0.80;83.70;;;;;;4999488;28;20467;-65
2021/01/15 12:29:05;;;;;;;7.87;4.57;;;0.60;85.70;;;;;;5003789;28;20479;-65
2021/01/15 12:31:30;;;;;;;6.83;5.10;;;0.40;87.10;;;;;;5001456;28;20462;-65
2021/01/15 12:33:56;;;;;;;6.93;5.07;;;0.30;89.10;;;;;;5005636;28;20182;-64
2021/01/15 12:36:22;;;;;;;9.27;4.90;;;0.20;90.00;;;;;;5004033;28;20838;-65
2021/01/15 12:38:47;;;;;;;8.13;4.50;;;0.00;90.40;;;;;;4996402;28;20608;-53
2021/01/15 12:41:17;;;;;;;6.87;5.30;;;0.00;91.50;;;;;;5003281;28;20219;-67
2021/01/15 12:43:43;;;;;;;8.47;4.67;;;0.00;91.80;;;;;;5000022;28;20197;-66
2021/01/15 12:46:12;;;;;;;9.70;4.47;;;-0.10;91.60;;;;;;5001667;28;20595;-66
2021/01/15 12:48:40;;;;;;;7.50;3.80;;;-0.10;91.70;;;;;;5001741;28;20206;-65
2021/01/15 12:51:06;;;;;;;6.60;4.60;;;-0.10;91.80;;;;;;4998143;28;20452;-65
2021/01/15 12:53:33;;;;;;;6.93;4.57;;;-0.20;92.00;;;;;;5004414;28;20773;-64
2021/01/15 12:55:59;;;;;;;9.47;4.07;;;-0.20;92.30;;;;;;5003927;28;20804;-65